Strona główna
METAR-TAF:

METAR-TAF

Lotnisko :

Juazeiro do Norte, Ceará, Brazylia

Szerokość geograficzna: 07-13-06S, Długość geograficzna: 039-16-18W, wysokość: 424 m

Aktualna obserwacja pogody

Raport powstał 1 godzina i 12 minut temu, godzina 00:00 UTC
Wiatr 9 kt od południowo-południowy wschód
Temperatura 28°C
Wilgotność 40%
Ciśnienie 1017 hPa
Widzialność 10 km lub więcej
Mało chmury na wysokości 2000 ft

METAR: SBJU 170000Z 16009KT 9999 FEW020 28/13 Q1017

czas: 22:12 (01:12 UTC)


TAF: brakujący

Obserwacja i prognoza pogody dla ponad 4000 lotnisk (raport METAR i TAF).

Dostępne stacje oznaczono żółtymi i czerwonymi punktami na mapie.

Najedź kursorem aby zobaczyć nazwę stacji.

Kliknij aby zobaczyć obserwacje i prognozy pogody.

Aby zmienić mapę: kliknij na zielony przycisk z czarnym krzyżykiem, aby powiększyć; na zielony przycisk z myślnikiem, aby pomniejszyć; na zielone strzałki, aby przejść do map sąsiednich.


METAR-TAF: